Time;durP1;ratioP1;P1;durP2;ratioP2;P2;SDS_P1;SDS_P2;PMS_P1;PMS_P2;Temp;Humidity;BMP_temperature;BMP_pressure;BME280_temperature;BME280_humidity;BME280_pressure;Samples;Min_cycle;Max_cycle;Signal;HPM_P1;HPM_P2
2022/11/19 00:05:38;;;;;;;4.47;2.00;;;;;;;19.35;45.76;63235.72;17152843;28;20272;-23
2022/11/19 00:14:16;;;;;;;3.80;1.47;;;;;;;19.30;45.77;63235.88;17150039;28;20291;-24
2022/11/19 00:22:52;;;;;;;3.70;1.60;;;;;;;19.26;45.44;63223.50;17166512;28;20314;-24
2022/11/19 00:31:29;;;;;;;4.30;2.00;;;;;;;19.24;45.33;63224.44;17153932;28;20244;-25
2022/11/19 00:40:07;;;;;;;3.60;1.50;;;;;;;19.19;45.60;63215.63;17183466;28;20603;-24
2022/11/19 00:48:44;;;;;;;3.60;1.50;;;;;;;19.14;45.31;63210.56;17141133;28;20260;-25
2022/11/19 00:57:19;;;;;;;4.90;1.87;;;;;;;19.14;45.57;63215.22;17187550;28;20241;-25
2022/11/19 01:05:56;;;;;;;4.23;1.70;;;;;;;19.09;45.19;63202.31;17141649;28;20326;-25
2022/11/19 01:14:32;;;;;;;5.87;1.87;;;;;;;19.06;45.42;63201.56;17155159;28;20622;-25
2022/11/19 01:23:08;;;;;;;3.50;1.80;;;;;;;19.03;45.26;63198.72;17232889;23;20239;-25
2022/11/19 01:31:44;;;;;;;4.07;1.70;;;;;;;18.98;45.40;63193.09;17250265;28;20725;-25
2022/11/19 01:40:21;;;;;;;3.60;1.70;;;;;;;18.94;45.49;63190.66;17244263;28;20282;-24
2022/11/19 01:49:01;;;;;;;4.20;1.70;;;;;;;18.90;45.50;63191.38;17252236;28;20228;-25
2022/11/19 01:57:39;;;;;;;3.43;1.60;;;;;;;18.84;45.41;63179.94;17242415;28;20353;-25
2022/11/19 02:06:15;;;;;;;4.07;2.17;;;;;;;18.81;45.71;63176.56;17245772;28;20228;-25
2022/11/19 02:15:24;;;;;;;4.33;2.17;;;;;;;18.79;45.57;63179.56;17246157;28;20212;-26
2022/11/19 02:24:23;;;;;;;3.70;1.90;;;;;;;18.75;45.76;63167.19;17247434;28;20762;-26
2022/11/19 02:33:05;;;;;;;4.37;1.93;;;;;;;18.73;45.48;63167.56;17238281;28;20224;-26
2022/11/19 02:41:46;;;;;;;4.73;2.37;;;;;;;18.69;45.21;63166.22;17235945;28;20244;-24
2022/11/19 02:50:27;;;;;;;3.67;1.73;;;;;;;18.67;45.43;63155.56;17247316;28;20233;-26
2022/11/19 03:07:58;;;;;;;3.70;1.87;;;;;;;18.61;45.38;63152.56;17232110;28;20712;-26
2022/11/19 03:16:42;;;;;;;3.80;1.90;;;;;;;18.58;45.24;63151.81;17245635;28;20279;-25
2022/11/19 03:25:26;;;;;;;4.22;1.92;;;;;;;18.54;45.35;63147.28;17245636;28;20238;-24
2022/11/19 03:34:07;;;;;;;4.00;2.17;;;;;;;18.53;45.47;63150.84;17244297;28;20328;-26
2022/11/19 03:42:49;;;;;;;4.37;2.10;;;;;;;18.51;45.25;63143.91;17243407;28;20730;-25
2022/11/19 03:51:32;;;;;;;5.03;2.00;;;;;;;18.46;45.25;63138.31;17236100;28;20634;-24
2022/11/19 04:00:10;;;;;;;3.73;1.80;;;;;;;18.44;45.41;63138.66;17239654;28;20232;-26
2022/11/19 04:08:46;;;;;;;3.80;1.67;;;;;;;18.44;45.52;63141.28;17236801;28;20306;-27
2022/11/19 04:17:22;;;;;;;3.70;1.90;;;;;;;18.38;45.89;63126.66;17242996;28;20312;-26
2022/11/19 04:25:57;;;;;;;3.70;1.70;;;;;;;18.38;45.56;63124.06;17239262;28;20232;-26
2022/11/19 04:34:34;;;;;;;3.57;1.70;;;;;;;18.36;45.37;63127.03;17232712;28;20286;-26
2022/11/19 04:43:10;;;;;;;3.80;1.93;;;;;;;18.30;45.53;63120.84;17242332;28;20294;-27
2022/11/19 04:51:46;;;;;;;3.30;1.60;;;;;;;18.30;45.58;63120.28;17243020;28;20237;-27
2022/11/19 05:00:22;;;;;;;4.30;1.90;;;;;;;18.28;45.40;63118.03;17233173;28;20260;-26
2022/11/19 05:08:58;;;;;;;4.20;2.03;;;;;;;18.26;45.42;63113.72;17242010;28;20886;-26
2022/11/19 05:17:34;;;;;;;4.30;2.07;;;;;;;18.24;45.77;63114.09;17253068;28;20237;-26
2022/11/19 05:26:11;;;;;;;3.57;1.80;;;;;;;18.21;45.74;63110.72;17253226;28;20230;-26
2022/11/19 05:34:46;;;;;;;3.60;1.80;;;;;;;18.17;45.75;63106.78;17240079;28;20437;-27
2022/11/19 05:43:23;;;;;;;3.47;1.83;;;;;;;18.16;45.65;63105.66;17251176;28;20268;-27
2022/11/19 05:51:58;;;;;;;4.73;1.90;;;;;;;18.13;45.52;63104.91;17249640;28;20278;-27
2022/11/19 06:00:35;;;;;;;3.90;1.70;;;;;;;18.31;44.98;63121.97;17246777;28;20325;-27
2022/11/19 06:09:10;;;;;;;4.07;1.93;;;;;;;18.52;44.66;63144.50;17233940;28;20282;-26
2022/11/19 06:17:47;;;;;;;3.40;1.60;;;;;;;18.65;44.67;63162.28;17241285;28;20833;-26
2022/11/19 06:26:23;;;;;;;3.80;2.30;;;;;;;18.70;44.79;63161.56;17235117;28;20483;-27
2022/11/19 06:35:00;;;;;;;3.50;1.50;;;;;;;18.74;45.00;63168.69;17243466;28;20585;-26
2022/11/19 06:43:35;;;;;;;4.23;1.83;;;;;;;18.80;44.81;63170.22;17247898;28;20243;-27
2022/11/19 06:52:12;;;;;;;4.33;2.07;;;;;;;18.90;45.03;63186.72;17247543;28;20472;-26
2022/11/19 07:00:47;;;;;;;5.60;2.07;;;;;;;18.94;45.17;63185.41;17244452;28;20232;-27
2022/11/19 07:09:24;;;;;;;4.50;2.20;;;;;;;18.97;45.14;63191.97;17247068;28;20244;-26
2022/11/19 07:18:01;;;;;;;3.93;2.17;;;;;;;19.04;45.31;63202.47;17211146;23;20271;-26
2022/11/19 07:26:38;;;;;;;4.70;2.10;;;;;;;19.03;45.63;63201.34;17087926;28;20265;-26
2022/11/19 07:35:13;;;;;;;4.40;2.10;;;;;;;19.10;45.56;63209.22;17128780;28;20205;-26
2022/11/19 07:43:50;;;;;;;4.77;2.30;;;;;;;19.17;45.58;63218.63;17116532;28;20280;-26
2022/11/19 07:52:25;;;;;;;6.53;3.10;;;;;;;19.19;45.65;63218.78;17109803;28;20876;-26
2022/11/19 08:01:09;;;;;;;4.40;2.10;;;;;;;19.28;45.85;63228.38;17101837;28;20258;-27
2022/11/19 08:09:44;;;;;;;4.23;2.10;;;;;;;19.26;46.09;63223.50;17099173;28;20276;-26
2022/11/19 08:18:21;;;;;;;4.20;2.40;;;;;;;19.28;46.06;63223.13;17100399;28;20295;-27
2022/11/19 08:26:56;;;;;;;6.20;2.30;;;;;;;19.34;45.92;63235.13;17108622;28;20244;-26
2022/11/19 08:35:33;;;;;;;5.80;2.40;;;;;;;19.39;46.17;63240.75;17110140;28;20201;-26
2022/11/19 08:44:09;;;;;;;4.90;2.10;;;;;;;19.40;46.17;63241.88;17127636;28;20317;-26
2022/11/19 08:52:46;;;;;;;3.57;1.83;;;;;;;19.44;46.29;63245.84;17126082;28;20955;-26
2022/11/19 09:01:21;;;;;;;4.17;2.40;;;;;;;19.46;46.10;63251.28;17129423;28;20237;-30
2022/11/19 09:09:58;;;;;;;4.10;2.20;;;;;;;19.45;46.22;63244.91;17120858;28;20261;-25
2022/11/19 09:18:34;;;;;;;4.70;2.37;;;;;;;19.46;46.59;63245.47;17120172;28;20237;-26
2022/11/19 09:27:11;;;;;;;5.77;3.30;;;;;;;19.48;46.61;63248.28;17119440;28;20238;-26
2022/11/19 09:35:46;;;;;;;4.72;2.40;;;;;;;19.46;46.60;63248.66;17118781;28;20241;-25
2022/11/19 09:44:36;;;;;;;11.00;4.00;;;;;;;19.54;46.60;63257.66;17118174;28;20237;-26
2022/11/19 09:53:15;;;;;;;9.93;4.27;;;;;;;19.62;46.42;63262.94;17117591;28;20794;-25
2022/11/19 10:01:52;;;;;;;14.87;4.20;;;;;;;19.70;46.65;63271.94;17116383;28;20261;-25
2022/11/19 10:10:37;;;;;;;17.50;4.97;;;;;;;19.71;46.47;63278.34;17107373;28;20217;-26
2022/11/19 10:19:31;;;;;;;15.93;5.80;;;;;;;19.74;46.63;63276.47;17110898;28;20242;-26
2022/11/19 10:28:12;;;;;;;16.60;5.40;;;;;;;19.77;46.60;63282.47;17112615;28;20280;-24
2022/11/19 10:36:55;;;;;;;13.37;5.00;;;;;;;19.75;46.75;63277.59;17110056;28;20226;-24
2022/11/19 10:45:30;;;;;;;14.73;4.70;;;;;;;19.73;47.06;63278.53;17112596;28;20256;-26
2022/11/19 10:54:21;;;;;;;14.40;5.30;;;;;;;19.72;47.00;63276.84;17111931;28;20437;-25
2022/11/19 11:03:01;;;;;;;18.53;6.07;;;;;;;19.68;47.25;63272.34;17108713;28;20709;-25
2022/11/19 11:20:32;;;;;;;18.00;5.10;;;;;;;19.82;47.00;63290.75;17108826;28;20231;-24
2022/11/19 11:29:25;;;;;;;15.47;5.70;;;;;;;19.88;46.65;63294.31;17128039;28;20276;-24
2022/11/19 11:38:02;;;;;;;13.00;5.20;;;;;;;19.86;46.80;63295.22;17114087;28;20262;-25
2022/11/19 11:46:43;;;;;;;10.97;5.47;;;;;;;19.85;46.87;63288.88;17109044;28;20237;-24
2022/11/19 11:55:31;;;;;;;7.43;4.10;;;;;;;19.85;46.81;63291.50;17109362;28;20225;-24
2022/11/19 12:04:12;;;;;;;8.83;4.80;;;;;;;19.85;46.87;63281.00;17108075;28;20655;-24
2022/11/19 12:13:02;;;;;;;10.90;4.40;;;;;;;19.84;46.95;63289.78;17097123;28;20608;-24
2022/11/19 12:21:50;;;;;;;9.90;4.90;;;;;;;19.83;46.68;63291.84;17107051;28;20292;-24
2022/11/19 12:30:32;;;;;;;15.67;4.83;;;;;;;19.80;46.88;63285.84;17100516;28;20849;-24
2022/11/19 12:39:19;;;;;;;10.23;4.07;;;;;;;19.78;46.92;63281.53;17106683;28;20237;-24
2022/11/19 12:48:13;;;;;;;12.30;5.32;;;;;;;19.74;46.76;63279.09;17106856;28;20240;-25
2022/11/19 12:57:02;;;;;;;8.83;3.90;;;;;;;19.70;46.66;63274.56;17122439;28;20237;-24
2022/11/19 13:05:47;;;;;;;9.20;3.77;;;;;;;19.65;47.05;63274.19;17103204;28;20269;-26
2022/11/19 13:14:30;;;;;;;8.98;3.88;;;;;;;19.64;46.85;63267.78;17117112;28;21587;-26
2022/11/19 13:23:07;;;;;;;9.43;4.40;;;;;;;19.61;46.86;63264.41;17140422;23;20326;-25
2022/11/19 13:31:51;;;;;;;10.20;4.50;;;;;;;19.58;46.74;63261.03;17104110;28;20230;-25
2022/11/19 13:40:31;;;;;;;9.00;3.93;;;;;;;19.63;46.61;63266.69;17071786;28;20712;-26
2022/11/19 13:49:14;;;;;;;11.93;4.50;;;;;;;19.72;46.39;63271.59;17095177;28;20235;-25
2022/11/19 13:57:50;;;;;;;11.13;4.40;;;;;;;19.81;46.38;63286.41;17065307;28;20239;-26
2022/11/19 14:06:43;;;;;;;10.67;4.60;;;;;;;19.83;46.52;63289.22;17075464;28;20230;-26
2022/11/19 14:34:02;;;;;;;8.10;4.00;;;;;;;19.83;46.64;63288.66;17078429;28;20233;-26
2022/11/19 14:52:20;;;;;;;7.37;3.70;;;;;;;19.75;46.74;63282.84;17066064;28;20276;-25
2022/11/19 15:01:13;;;;;;;7.63;3.83;;;;;;;19.77;46.88;63282.47;17066397;28;20240;-25
2022/11/19 15:10:02;;;;;;;7.10;3.90;;;;;;;19.78;46.62;63278.91;17074617;28;20261;-26
2022/11/19 15:19:11;;;;;;;7.87;3.73;;;;;;;19.82;46.69;63287.53;17064195;28;20285;-25
2022/11/19 15:27:57;;;;;;;8.70;3.30;;;;;;;19.88;46.69;63289.63;17092490;28;20338;-25
2022/11/19 15:36:39;;;;;;;6.33;3.70;;;;;;;19.94;46.65;63304.25;17076822;28;20315;-26
2022/11/19 15:45:19;;;;;;;9.50;3.97;;;;;;;19.96;46.61;63305.94;17072138;28;20226;-26
2022/11/19 15:54:00;;;;;;;8.40;4.07;;;;;;;19.92;46.97;63296.75;17083920;28;20629;-26
2022/11/19 16:02:38;;;;;;;8.47;4.30;;;;;;;19.89;46.80;63296.00;17069996;28;20762;-26
2022/11/19 16:20:21;;;;;;;6.57;3.50;;;;;;;19.83;47.23;63286.06;17085022;28;20269;-25
2022/11/19 16:29:01;;;;;;;8.43;3.95;;;;;;;19.77;47.08;63280.41;17060579;28;20238;-25
2022/11/19 16:37:37;;;;;;;8.37;3.90;;;;;;;19.82;47.10;63290.16;17082394;28;20234;-26
2022/11/19 16:46:16;;;;;;;8.00;3.97;;;;;;;19.90;46.83;63289.25;17103678;28;20271;-26
2022/11/19 16:54:51;;;;;;;7.30;3.57;;;;;;;19.93;46.87;63295.25;17070215;28;20198;-26
2022/11/19 17:03:38;;;;;;;7.23;3.83;;;;;;;19.92;46.79;63299.38;17068284;28;20724;-25
2022/11/19 17:12:26;;;;;;;5.87;3.50;;;;;;;19.90;46.93;63297.13;17094014;28;20269;-26
2022/11/19 17:21:07;;;;;;;8.67;3.90;;;;;;;19.86;47.04;63292.63;17087534;28;20288;-26
2022/11/19 17:29:45;;;;;;;7.63;4.17;;;;;;;19.83;47.27;63286.59;17058322;28;20284;-25
2022/11/19 17:38:26;;;;;;;8.13;4.27;;;;;;;19.80;47.24;63285.28;17117488;28;20280;-25
2022/11/19 17:47:02;;;;;;;7.83;4.13;;;;;;;19.83;46.99;63289.22;17090657;28;20837;-26
2022/11/19 17:55:40;;;;;;;9.60;3.80;;;;;;;19.92;46.78;63299.38;17111862;28;20226;-27
2022/11/19 18:04:16;;;;;;;8.70;4.63;;;;;;;19.97;46.94;63305.00;17081510;28;20272;-26
2022/11/19 18:12:52;;;;;;;7.47;4.33;;;;;;;20.02;46.81;63306.88;17076838;28;20234;-25
2022/11/19 18:21:28;;;;;;;8.55;4.68;;;;;;;20.00;47.08;63308.38;17077714;28;20257;-25
2022/11/19 18:30:05;;;;;;;9.50;4.97;;;;;;;19.97;46.96;63304.44;17063889;28;20233;-25
2022/11/19 18:38:41;;;;;;;8.60;4.77;;;;;;;19.94;46.98;63298.44;17099687;28;20603;-26
2022/11/19 18:47:18;;;;;;;7.70;4.20;;;;;;;19.91;47.06;63297.69;17087535;28;20237;-25
2022/11/19 18:55:54;;;;;;;7.77;4.80;;;;;;;19.86;47.26;63287.38;17072028;28;20211;-26
2022/11/19 19:04:30;;;;;;;9.60;5.07;;;;;;;19.84;47.16;63292.97;17064987;28;20249;-26
2022/11/19 19:13:06;;;;;;;7.20;4.37;;;;;;;19.87;47.13;63290.56;17075731;28;20796;-24
2022/11/19 19:21:43;;;;;;;7.73;4.37;;;;;;;19.96;46.81;63303.88;17068476;28;20311;-23
2022/11/19 19:30:18;;;;;;;7.80;4.70;;;;;;;20.02;46.64;63312.13;17063112;28;20284;-24
2022/11/19 19:38:55;;;;;;;7.90;4.30;;;;;;;20.03;46.87;63310.66;17068258;28;20251;-24
2022/11/19 19:47:30;;;;;;;9.10;4.90;;;;;;;20.00;46.89;63307.84;17064706;28;20303;-24
2022/11/19 19:56:11;;;;;;;7.47;4.67;;;;;;;19.97;47.05;63304.44;17092795;28;20299;-24
2022/11/19 20:04:46;;;;;;;8.00;4.60;;;;;;;19.94;47.19;63304.25;17048790;28;20242;-26
2022/11/19 20:13:30;;;;;;;7.40;4.57;;;;;;;19.90;47.20;63296.56;17101007;28;20757;-24
2022/11/19 20:22:08;;;;;;;8.07;4.90;;;;;;;19.86;47.06;63292.06;17073491;28;20757;-25
2022/11/19 20:30:45;;;;;;;7.90;4.83;;;;;;;19.85;47.23;63288.88;17063321;28;20625;-26
2022/11/19 20:39:20;;;;;;;7.80;4.67;;;;;;;19.93;46.60;63305.75;17086572;28;20599;-25
2022/11/19 20:47:57;;;;;;;8.20;5.07;;;;;;;19.99;46.62;63312.53;17109614;28;20697;-25
2022/11/19 20:56:32;;;;;;;10.97;6.07;;;;;;;19.98;46.97;63306.13;17082775;28;20277;-26
2022/11/19 21:05:09;;;;;;;9.13;6.00;;;;;;;19.97;46.79;63301.84;17085305;28;20930;-24
2022/11/19 21:13:45;;;;;;;18.17;6.73;;;;;;;19.93;47.17;63300.50;17086572;28;20235;-25
2022/11/19 21:22:21;;;;;;;13.30;7.47;;;;;;;19.90;47.19;63299.19;17078360;28;20256;-24
2022/11/19 21:30:57;;;;;;;12.53;6.93;;;;;;;19.92;47.11;63298.81;17083943;28;20322;-25
2022/11/19 21:39:33;;;;;;;11.60;6.90;;;;;;;19.98;46.87;63306.13;17090093;28;20222;-25
2022/11/19 21:48:09;;;;;;;11.97;6.83;;;;;;;19.98;47.05;63311.38;17074706;28;20242;-25
2022/11/19 21:56:46;;;;;;;11.63;6.40;;;;;;;19.96;47.01;63303.88;17079641;28;20251;-24
2022/11/19 22:05:21;;;;;;;13.00;7.13;;;;;;;19.93;47.19;63300.50;17090305;28;20229;-25
2022/11/19 22:13:59;;;;;;;15.40;8.30;;;;;;;19.89;47.23;63298.63;17107308;28;20662;-24
2022/11/19 22:22:35;;;;;;;13.80;8.13;;;;;;;19.87;47.16;63293.72;17063042;28;20266;-24
2022/11/19 22:31:12;;;;;;;15.60;7.70;;;;;;;19.83;47.31;63286.59;17086074;28;20234;-23
2022/11/19 22:39:47;;;;;;;13.57;7.40;;;;;;;19.80;47.34;63285.84;17084073;28;20277;-23
2022/11/19 22:48:24;;;;;;;20.70;9.57;;;;;;;19.78;47.42;63284.16;17112531;28;20237;-23
2022/11/19 22:56:59;;;;;;;14.93;8.00;;;;;;;19.76;47.36;63281.34;17063340;28;20226;-22
2022/11/19 23:05:36;;;;;;;16.73;8.93;;;;;;;19.73;47.55;63278.53;17090828;28;20245;-25
2022/11/19 23:14:14;;;;;;;15.97;8.90;;;;;;;19.71;47.40;63275.72;17073506;28;20719;-24
2022/11/19 23:22:51;;;;;;;16.77;8.13;;;;;;;19.67;47.48;63271.19;17097294;28;20314;-22
2022/11/19 23:31:28;;;;;;;18.17;9.07;;;;;;;19.64;47.53;63268.38;17086073;28;20230;-23
2022/11/19 23:40:05;;;;;;;16.50;9.47;;;;;;;19.60;47.26;63260.69;17091612;28;20226;-25
2022/11/19 23:48:42;;;;;;;15.37;9.67;;;;;;;19.57;47.42;63260.47;17079791;28;20234;-23
2022/11/19 23:57:19;;;;;;;14.63;9.27;;;;;;;19.54;47.24;63255.03;17079522;28;20230;-25
